Time,TemperatureF,DewpointF,PressureIn,WindDirection,WindDirectionDegrees,WindSpeedMPH,WindSpeedGustMPH,Humidity,HourlyPrecipIn,Conditions,Clouds,dailyrainin,SolarRadiationWatts/m^2,SoftwareType,DateUTC
2013-06-06 00:04:00,52.2,43.0,29.96,SSE,162,2.0,4.0,72,0.00,,,0.01,0,weatherlink.com 1.10,2013-06-06 07:04:00,
2013-06-06 00:19:00,52.3,44.0,29.96,SSE,155,0.0,3.0,72,0.00,,,0.00,0,weatherlink.com 1.10,2013-06-06 07:19:00,
2013-06-06 00:34:00,52.4,44.0,29.96,SSE,155,2.0,3.0,72,0.00,,,0.00,0,weatherlink.com 1.10,2013-06-06 07:34:00,
2013-06-06 00:49:00,52.3,44.0,29.95,SSE,155,3.0,3.0,72,0.00,,,0.00,0,weatherlink.com 1.10,2013-06-06 07:49:00,
2013-06-06 01:04:00,52.0,44.0,29.95,SSE,155,0.0,2.0,73,0.00,,,0.00,0,weatherlink.com 1.10,2013-06-06 08:04:00,
2013-06-06 01:19:00,51.8,43.0,29.95,SSE,155,0.0,1.0,72,0.00,,,0.00,0,weatherlink.com 1.10,2013-06-06 08:19:00,
2013-06-06 01:34:00,51.8,43.0,29.94,SSE,155,0.0,2.0,72,0.00,,,0.00,0,weatherlink.com 1.10,2013-06-06 08:34:00,
2013-06-06 01:49:00,51.5,43.0,29.94,SSE,155,0.0,2.0,72,0.00,,,0.00,0,weatherlink.com 1.10,2013-06-06 08:49:00,
2013-06-06 02:04:00,51.3,43.0,29.94,East,84,2.0,3.0,72,0.00,,,0.00,0,weatherlink.com 1.10,2013-06-06 09:04:00,
2013-06-06 02:19:00,51.3,43.0,29.94,East,84,0.0,3.0,72,0.00,,,0.00,0,weatherlink.com 1.10,2013-06-06 09:19:00,
2013-06-06 02:34:00,51.4,43.0,29.94,East,84,2.0,3.0,72,0.00,,,0.00,0,weatherlink.com 1.10,2013-06-06 09:34:00,
2013-06-06 02:49:00,51.2,42.0,29.93,East,84,0.0,3.0,72,0.00,,,0.00,0,weatherlink.com 1.10,2013-06-06 09:49:00,
2013-06-06 03:04:00,51.1,42.0,29.93,East,84,1.0,1.0,72,0.00,,,0.00,0,weatherlink.com 1.10,2013-06-06 10:04:00,
2013-06-06 03:19:00,51.0,43.0,29.93,ESE,115,0.0,6.0,73,0.00,,,0.00,0,weatherlink.com 1.10,2013-06-06 10:19:00,
2013-06-06 03:34:00,50.7,42.0,29.94,ESE,115,1.0,2.0,73,0.00,,,0.00,0,weatherlink.com 1.10,2013-06-06 10:34:00,
2013-06-06 03:49:00,50.7,42.0,29.94,ESE,115,1.0,3.0,73,0.00,,,0.00,0,weatherlink.com 1.10,2013-06-06 10:49:00,
2013-06-06 04:04:00,50.7,42.0,29.94,ENE,67,3.0,4.0,73,0.00,,,0.00,0,weatherlink.com 1.10,2013-06-06 11:04:00,
2013-06-06 04:19:00,50.6,42.0,29.93,NE,53,0.0,4.0,73,0.00,,,0.00,0,weatherlink.com 1.10,2013-06-06 11:19:00,
2013-06-06 04:34:00,50.6,42.0,29.94,NE,53,3.0,4.0,73,0.00,,,0.00,0,weatherlink.com 1.10,2013-06-06 11:34:00,
2013-06-06 04:49:00,50.5,42.0,29.94,NE,52,1.0,4.0,73,0.01,,,0.01,0,weatherlink.com 1.10,2013-06-06 11:49:00,
2013-06-06 05:04:00,50.4,42.0,29.94,NE,52,1.0,3.0,72,0.01,,,0.01,0,weatherlink.com 1.10,2013-06-06 12:04:00,
2013-06-06 05:19:00,50.4,42.0,29.94,NE,52,1.0,3.0,72,0.01,,,0.01,0,weatherlink.com 1.10,2013-06-06 12:19:00,
2013-06-06 05:34:00,50.3,42.0,29.94,NE,52,2.0,2.0,72,0.01,,,0.01,0,weatherlink.com 1.10,2013-06-06 12:34:00,
2013-06-06 05:50:00,50.4,42.0,29.94,NE,52,0.0,2.0,72,0.00,,,0.01,0,weatherlink.com 1.10,2013-06-06 12:50:00,
2013-06-06 06:05:00,50.3,42.0,29.95,NE,52,0.0,3.0,73,0.00,,,0.01,7,weatherlink.com 1.10,2013-06-06 13:05:00,
2013-06-06 06:20:00,50.2,42.0,29.95,NE,52,0.0,0.0,73,0.00,,,0.01,16,weatherlink.com 1.10,2013-06-06 13:20:00,
2013-06-06 06:35:00,50.4,42.0,29.95,NE,52,0.0,1.0,72,0.00,,,0.01,25,weatherlink.com 1.10,2013-06-06 13:35:00,
2013-06-06 06:50:00,50.6,42.0,29.95,NE,52,0.0,0.0,72,0.00,,,0.01,39,weatherlink.com 1.10,2013-06-06 13:50:00,
2013-06-06 07:05:00,50.8,42.0,29.96,NE,52,1.0,2.0,73,0.00,,,0.01,49,weatherlink.com 1.10,2013-06-06 14:05:00,
2013-06-06 07:20:00,51.3,43.0,29.96,NE,51,0.0,1.0,72,0.00,,,0.01,70,weatherlink.com 1.10,2013-06-06 14:20:00,
2013-06-06 07:35:00,51.5,43.0,29.96,ENE,63,0.0,2.0,73,0.00,,,0.01,91,weatherlink.com 1.10,2013-06-06 14:35:00,
2013-06-06 07:50:00,51.2,43.0,29.96,ENE,63,0.0,2.0,73,0.00,,,0.01,107,weatherlink.com 1.10,2013-06-06 14:50:00,
2013-06-06 08:05:00,52.0,43.0,29.96,South,187,3.0,4.0,72,0.00,,,0.01,127,weatherlink.com 1.10,2013-06-06 15:05:00,
2013-06-06 08:20:00,51.4,43.0,29.96,SSW,205,2.0,3.0,73,0.00,,,0.01,128,weatherlink.com 1.10,2013-06-06 15:20:00,
2013-06-06 08:35:00,52.1,43.0,29.96,SSW,205,2.0,3.0,72,0.00,,,0.01,156,weatherlink.com 1.10,2013-06-06 15:35:00,
2013-06-06 08:50:00,52.4,44.0,29.97,SSW,202,3.0,5.0,72,0.00,,,0.01,200,weatherlink.com 1.10,2013-06-06 15:50:00,
2013-06-06 09:05:00,52.7,44.0,29.97,SSW,197,2.0,5.0,72,0.00,,,0.01,276,weatherlink.com 1.10,2013-06-06 16:05:00,
2013-06-06 09:20:00,53.1,44.0,29.97,SSW,196,5.0,6.0,72,0.00,,,0.01,336,weatherlink.com 1.10,2013-06-06 16:20:00,
2013-06-06 09:35:00,54.0,45.0,29.97,South,190,6.0,6.0,72,0.00,,,0.01,376,weatherlink.com 1.10,2013-06-06 16:35:00,
2013-06-06 09:50:00,54.5,46.0,29.97,SSW,193,2.0,6.0,73,0.00,,,0.01,394,weatherlink.com 1.10,2013-06-06 16:50:00,
2013-06-06 10:05:00,54.9,46.0,29.96,SSW,203,4.0,6.0,73,0.00,,,0.01,489,weatherlink.com 1.10,2013-06-06 17:05:00,
2013-06-06 10:20:00,56.4,48.0,29.96,South,190,3.0,6.0,73,0.00,,,0.01,522,weatherlink.com 1.10,2013-06-06 17:20:00,
2013-06-06 10:35:00,57.2,49.0,29.97,South,178,4.0,6.0,73,0.00,,,0.01,643,weatherlink.com 1.10,2013-06-06 17:35:00,
2013-06-06 10:50:00,57.8,49.0,29.97,SSW,194,6.0,8.0,72,0.00,,,0.01,786,weatherlink.com 1.10,2013-06-06 17:50:00,
2013-06-06 11:05:00,57.5,49.0,29.97,SSW,193,6.0,6.0,72,0.00,,,0.01,587,weatherlink.com 1.10,2013-06-06 18:05:00,
2013-06-06 11:20:00,58.5,49.0,29.97,South,187,4.0,7.0,71,0.00,,,0.01,601,weatherlink.com 1.10,2013-06-06 18:20:00,
2013-06-06 11:35:00,58.6,49.0,29.97,South,186,5.0,6.0,70,0.00,,,0.01,749,weatherlink.com 1.10,2013-06-06 18:35:00,
2013-06-06 11:50:00,58.6,49.0,29.97,SSW,196,5.0,7.0,70,0.00,,,0.01,800,weatherlink.com 1.10,2013-06-06 18:50:00,
2013-06-06 12:05:00,60.0,50.0,29.97,South,184,3.0,8.0,69,0.00,,,0.01,705,weatherlink.com 1.10,2013-06-06 19:05:00,
2013-06-06 12:21:00,60.0,49.0,29.97,South,190,2.0,7.0,68,0.00,,,0.01,686,weatherlink.com 1.10,2013-06-06 19:21:00,
2013-06-06 12:36:00,60.4,50.0,29.97,SSE,162,4.0,8.0,68,0.00,,,0.01,882,weatherlink.com 1.10,2013-06-06 19:36:00,
2013-06-06 12:51:00,61.7,51.0,29.96,SSW,197,5.0,9.0,67,0.00,,,0.01,795,weatherlink.com 1.10,2013-06-06 19:51:00,
2013-06-06 13:06:00,61.2,50.0,29.96,South,182,5.0,7.0,67,0.00,,,0.01,1178,weatherlink.com 1.10,2013-06-06 20:06:00,
2013-06-06 13:21:00,59.6,49.0,29.96,SSW,207,3.0,7.0,68,0.00,,,0.01,912,weatherlink.com 1.10,2013-06-06 20:21:00,
2013-06-06 13:36:00,61.2,50.0,29.96,SSW,193,5.0,7.0,67,0.00,,,0.01,817,weatherlink.com 1.10,2013-06-06 20:36:00,
2013-06-06 13:51:00,60.1,49.0,29.96,WSW,246,1.0,6.0,66,0.00,,,0.01,819,weatherlink.com 1.10,2013-06-06 20:51:00,
2013-06-06 14:06:00,59.8,49.0,29.95,SW,228,2.0,8.0,68,0.00,,,0.01,735,weatherlink.com 1.10,2013-06-06 21:06:00,
2013-06-06 14:21:00,58.3,48.0,29.95,West,279,6.0,8.0,68,0.00,,,0.01,891,weatherlink.com 1.10,2013-06-06 21:21:00,
2013-06-06 14:36:00,56.4,47.0,29.95,WSW,238,5.0,10.0,71,0.00,,,0.01,712,weatherlink.com 1.10,2013-06-06 21:36:00,
2013-06-06 14:51:00,56.4,47.0,29.95,WNW,300,2.0,8.0,71,0.00,,,0.01,976,weatherlink.com 1.10,2013-06-06 21:51:00,
2013-06-06 15:06:00,57.5,49.0,29.94,WSW,240,3.0,7.0,72,0.00,,,0.01,759,weatherlink.com 1.10,2013-06-06 22:06:00,
2013-06-06 15:21:00,60.0,50.0,29.93,SSW,196,4.0,7.0,70,0.00,,,0.01,714,weatherlink.com 1.10,2013-06-06 22:21:00,
2013-06-06 15:36:00,58.7,49.0,29.92,SW,235,8.0,10.0,70,0.00,,,0.01,570,weatherlink.com 1.10,2013-06-06 22:36:00,
2013-06-06 16:06:00,57.4,48.0,29.91,West,269,6.0,15.0,71,0.00,,,0.01,768,weatherlink.com 1.10,2013-06-06 23:06:00,
2013-06-06 16:21:00,57.7,48.0,29.90,West,260,7.0,11.0,71,0.00,,,0.01,728,weatherlink.com 1.10,2013-06-06 23:21:00,
2013-06-06 16:36:00,58.0,49.0,29.89,WNW,284,5.0,10.0,71,0.00,,,0.01,689,weatherlink.com 1.10,2013-06-06 23:36:00,
2013-06-06 16:51:00,58.0,49.0,29.89,WSW,244,9.0,12.0,71,0.00,,,0.01,643,weatherlink.com 1.10,2013-06-06 23:51:00,
2013-06-06 17:06:00,57.9,49.0,29.88,SW,233,7.0,11.0,71,0.00,,,0.01,603,weatherlink.com 1.10,2013-06-07 00:06:00,
2013-06-06 17:21:00,59.0,49.0,29.88,NW,304,7.0,10.0,70,0.00,,,0.01,557,weatherlink.com 1.10,2013-06-07 00:21:00,
2013-06-06 17:36:00,58.7,49.0,29.87,WSW,256,5.0,12.0,70,0.00,,,0.01,513,weatherlink.com 1.10,2013-06-07 00:36:00,
2013-06-06 18:06:00,57.7,48.0,29.86,WNW,291,4.0,10.0,70,0.00,,,0.01,427,weatherlink.com 1.10,2013-06-07 01:06:00,
2013-06-06 18:21:00,57.3,48.0,29.85,West,261,7.0,11.0,71,0.00,,,0.01,376,weatherlink.com 1.10,2013-06-07 01:21:00,
2013-06-06 18:36:00,56.6,47.0,29.85,WSW,249,6.0,12.0,71,0.00,,,0.01,325,weatherlink.com 1.10,2013-06-07 01:36:00,
2013-06-06 18:51:00,56.2,47.0,29.85,West,274,3.0,11.0,71,0.00,,,0.01,271,weatherlink.com 1.10,2013-06-07 01:51:00,
2013-06-06 19:06:00,55.7,47.0,29.84,WNW,285,7.0,11.0,72,0.00,,,0.01,218,weatherlink.com 1.10,2013-06-07 02:06:00,
2013-06-06 19:21:00,55.9,47.0,29.84,WSW,250,4.0,10.0,72,0.00,,,0.01,167,weatherlink.com 1.10,2013-06-07 02:21:00,
2013-06-06 19:36:00,55.8,47.0,29.84,West,261,3.0,9.0,72,0.00,,,0.01,114,weatherlink.com 1.10,2013-06-07 02:36:00,
2013-06-06 19:51:00,55.3,46.0,29.84,WSW,258,2.0,7.0,72,0.00,,,0.01,70,weatherlink.com 1.10,2013-06-07 02:51:00,
2013-06-06 20:06:00,54.4,46.0,29.85,West,267,3.0,8.0,72,0.00,,,0.01,35,weatherlink.com 1.10,2013-06-07 03:06:00,
2013-06-06 20:21:00,53.8,45.0,29.84,West,279,1.0,5.0,72,0.00,,,0.01,16,weatherlink.com 1.10,2013-06-07 03:21:00,
2013-06-06 20:36:00,53.7,45.0,29.84,West,279,0.0,0.0,73,0.00,,,0.01,5,weatherlink.com 1.10,2013-06-07 03:36:00,
2013-06-06 21:21:00,52.4,44.0,29.86,West,279,2.0,2.0,73,0.00,,,0.01,0,weatherlink.com 1.10,2013-06-07 04:21:00,
2013-06-06 21:36:00,52.0,44.0,29.85,WSW,252,0.0,2.0,73,0.00,,,0.01,0,weatherlink.com 1.10,2013-06-07 04:36:00,
2013-06-06 21:51:00,51.6,43.0,29.86,WSW,252,0.0,1.0,73,0.00,,,0.01,0,weatherlink.com 1.10,2013-06-07 04:51:00,
2013-06-06 22:06:00,51.3,43.0,29.86,WSW,252,0.0,1.0,73,0.00,,,0.01,0,weatherlink.com 1.10,2013-06-07 05:06:00,
2013-06-06 22:21:00,51.0,43.0,29.86,SE,144,1.0,3.0,73,0.00,,,0.01,0,weatherlink.com 1.10,2013-06-07 05:21:00,
2013-06-06 22:36:00,50.8,42.0,29.87,East,92,2.0,5.0,73,0.00,,,0.01,0,weatherlink.com 1.10,2013-06-07 05:36:00,
2013-06-06 22:51:00,51.4,43.0,29.87,East,101,0.0,4.0,73,0.00,,,0.01,0,weatherlink.com 1.10,2013-06-07 05:51:00,
2013-06-06 23:06:00,51.1,43.0,29.87,ESE,117,1.0,3.0,73,0.00,,,0.01,0,weatherlink.com 1.10,2013-06-07 06:06:00,
2013-06-06 23:21:00,51.4,43.0,29.87,SE,143,2.0,8.0,73,0.00,,,0.01,0,weatherlink.com 1.10,2013-06-07 06:21:00,
2013-06-06 23:36:00,51.7,43.0,29.87,ESE,107,9.0,11.0,73,0.00,,,0.01,0,weatherlink.com 1.10,2013-06-07 06:36:00,